Main page
METAR-TAF:

METAR-TAF

Airports :

RAF Marham

Marham, England

latitude: 52-39N, longitude: 000-34E, elevation: 23 m

Current weather observation

The report was made 1 hour and 6 minutes ago, at 22:50 UTC
Wind 6 kt from the West/Southwest
Temperature 13°C
Humidity 82%
Pressure 1016 hPa
Visibility 10 km or more

METAR: EGYM 252250Z AUTO 24006KT 9999 BKN046/// 13/10 Q1016

Time: 00:56 (23:56 UTC)

Forecast

The report was made 9 hours and 35 minutes ago, at 14:21 UTC
Forecast valid from 25 at 15 UTC to 25 at 18 UTC
Wind 16 kt from the Southwest with gusts up to 26 kt
Visibility 10 km or more
Few clouds at a height of 2200 ft
Scattered clouds at a height of 3500 ft
Becoming
from 25 at 15 UTC to 25 at 18 UTC
Wind 12 kt from the West
Temporary
from 25 at 15 UTC to 25 at 18 UTC
Visibility: 7000 m
Scattered clouds at a height of 2200 ft
light rain showers

TAF: EGYM 251421Z 2515/2518 22016G26KT 9999 FEW022 SCT035 BECMG 2515/2518 28012KT TEMPO 2515/2518 7000 -SHRA SCT022

Weather observations and forecasts of more than 4000 airports (METAR and TAF reports).

The available stations are represented by yellow and red dots on the map.

Hover mouse over dot to see the name of the station.

Then click to see weather observations and forecasts.

To change the map : click on the green buttons with a black cross to zoom in, on the green button with a dash to zoom out, or on the green arrows for adjacent maps.


METAR-TAF: